Flight Track Log - Related Links

Times and Time Zones

All times are in EDT time to prevent confusion due to time zone crossing. See the UAL4422 flight status page for this flight to view local times or setup timezone preferences in your user account.

Time Position Orientation Groundspeed Altitude Reporting Facility
EDT Latitude Longitude Course Direction KTS MPH feet Rate Location/Type
Fri 04:32:06 PM 29.9553 -95.3419 211° Southwest 185 213 1,100  Level Houston Center
Fri 04:32:55 PM 29.9217 -95.3653 211° Southwest 225 259 2,800 1,909 Climbing Houston Center
Fri 04:33:12 PM 29.9133 -95.3858 245° Southwest 247 284 3,200 2,506 Climbing Houston Center
Fri 04:34:14 PM 29.8786 -95.4561 240° Southwest 251 289 6,100 2,565 Climbing Houston Center
Fri 04:35:16 PM 29.8447 -95.5308 242° Southwest 270 311 8,500 2,613 Climbing Houston Center
Fri 04:36:18 PM 29.8667 -95.6125 287° West 270 311 11,500 1,790 Climbing Houston Center
Fri 04:37:20 PM 29.8983 -95.6986 293° West 286 329 12,200 726 Climbing Houston Center
Fri 04:38:22 PM 29.9353 -95.7975 293° West 332 382 13,000 1,016 Climbing Houston Center
Fri 04:39:24 PM 29.9822 -95.9269 293° West 359 413 14,300 1,296 Climbing Houston Center
Fri 04:40:27 PM 30.0217 -96.0314 294° West 360 414 15,700 1,344 Climbing Houston Center
Fri 04:41:29 PM 30.0600 -96.1353 293° West 355 409 17,100 1,403 Climbing Houston Center
Fri 04:42:31 PM 30.0981 -96.2397 293° West 355 409 18,600 1,452 Climbing Houston Center
Fri 04:43:33 PM 30.1150 -96.3500 280° West 349 402 20,100 1,839 Climbing Houston Center
Fri 04:44:35 PM 30.1347 -96.4817 280° West 343 395 22,400 2,081 Climbing Houston Center
Fri 04:45:37 PM 30.1508 -96.5883 280° West 334 384 24,400 1,790 Climbing Houston Center
Fri 04:46:39 PM 30.1667 -96.6936 280° West 329 379 26,100 1,500 Climbing Houston Center
Fri 04:47:41 PM 30.1828 -96.7986 280° West 330 380 27,500 1,306 Climbing Houston Center
Fri 04:48:43 PM 30.2000 -96.9042 281° West 331 381 28,800 1,306 Climbing Houston Center
Fri 04:49:45 PM 30.2364 -97.0069 292° West 337 388 30,200 1,306 Climbing Houston Center
Fri 04:50:47 PM 30.2725 -97.1100 292° West 342 394 31,500 1,296 Climbing Houston Center
Fri 04:51:50 PM 30.3083 -97.2161 291° West 347 399 32,900 1,200 Climbing Houston Center
Fri 04:52:52 PM 30.3508 -97.3394 292° West 350 403 34,000 532 Climbing Houston Center
Fri 04:53:54 PM 30.3892 -97.4528 291° West 369 425 34,000  Level Houston Center
Fri 04:54:56 PM 30.4311 -97.5747 292° West 395 455 34,000  Level Houston Center
Fri 04:55:58 PM 30.4739 -97.6978 292° West 404 465 34,000  Level Houston Center
Fri 04:57:00 PM 30.5153 -97.8189 292° West 400 460 34,000  Level Houston Center
Fri 04:58:02 PM 30.5544 -97.9403 291° West 398 458 34,000  Level Houston Center
Fri 04:59:04 PM 30.5978 -98.0656 292° West 407 468 34,000  Level Houston Center
Fri 05:00:06 PM 30.6400 -98.1897 292° West 410 472 34,000  Level Houston Center
Fri 05:01:09 PM 30.6881 -98.3322 291° West 403 464 34,000  Level Houston Center
Fri 05:02:11 PM 30.7275 -98.4506 291° West 401 461 34,000  Level Houston Center
Fri 05:03:13 PM 30.7697 -98.5781 291° West 405 466 34,000  Level Houston Center
Fri 05:04:15 PM 30.8114 -98.7000 292° West 401 461 34,000  Level Houston Center
Fri 05:05:17 PM 30.8517 -98.8239 291° West 406 467 34,000  Level Houston Center
Fri 05:06:19 PM 30.8911 -98.9461 291° West 402 463 34,000  Level Houston Center
Fri 05:07:21 PM 30.9322 -99.0689 291° West 403 464 34,000  Level Houston Center
Fri 05:08:23 PM 30.9758 -99.2019 291° West 404 465 34,000  Level Houston Center
Fri 05:09:25 PM 31.0147 -99.3222 291° West 401 461 34,000 -48 Level Houston Center
Fri 05:10:28 PM 31.0536 -99.4436 291° West 401 461 33,900  Descending Houston Center
Fri 05:11:30 PM 31.0989 -99.5858 290° West 392 451 34,000 48 Climbing Houston Center
Fri 05:12:32 PM 31.1389 -99.7086 291° West 402 463 34,000  Level Houston Center
Fri 05:13:34 PM 31.1778 -99.8317 290° West 403 464 34,000  Level Houston Center
Fri 05:14:36 PM 31.2164 -99.9536 290° West 402 463 34,000  Level Houston Center
Fri 05:15:38 PM 31.2550 -100.0758 290° West 403 464 34,000 -339 Level Houston Center
Fri 05:16:40 PM 31.2942 -100.1958 291° West 397 457 33,300 -1,210 Descending Houston Center
Fri 05:17:42 PM 31.3386 -100.3369 290° West 390 449 31,500 -1,607 Descending Houston Center
Fri 05:18:32 PM 31.3708 -100.4450 289° West 393 452 30,300 -1,582 Descending Fort Worth Center
Fri 05:19:32 PM 31.4139 -100.5606 294° West 393 452 28,600 -1,850 Descending Fort Worth Center
Fri 05:20:32 PM 31.4531 -100.6692 293° West 399 459 26,600 -2,050 Descending Fort Worth Center
Fri 05:21:32 PM 31.5019 -100.7903 295° West 399 459 24,500 -2,100 Descending Fort Worth Center
Fri 05:22:32 PM 31.5447 -100.9089 293° West 399 459 22,400 -2,200 Descending Fort Worth Center
Fri 05:23:32 PM 31.5853 -101.0250 292° West 399 459 20,100 -2,300 Descending Fort Worth Center
Fri 05:24:32 PM 31.6278 -101.1364 294° West 389 448 17,800 -2,150 Descending Fort Worth Center
Fri 05:25:32 PM 31.6683 -101.2453 294° West 377 434 15,800 -1,750 Descending Fort Worth Center
Fri 05:26:32 PM 31.7089 -101.3522 294° West 366 421 14,300 -950 Descending Fort Worth Center
Fri 05:27:32 PM 31.7472 -101.4586 293° West 360 414 13,900 -200 Descending Fort Worth Center
Fri 05:28:32 PM 31.7856 -101.5656 293° West 360 414 13,900 -450 Level Fort Worth Center
Fri 05:29:32 PM 31.8364 -101.6656 301° West 360 414 13,000 -1,000 Descending Fort Worth Center
Fri 05:30:32 PM 31.8856 -101.7583 302° West 353 406 11,900 -1,400 Descending Fort Worth Center
Fri 05:31:32 PM 31.9244 -101.8361 301° West 318 366 10,200 -1,900 Descending Fort Worth Center
Fri 05:32:32 PM 31.9656 -101.9164 301° West 299 344 8,100 -1,700 Descending Fort Worth Center
Fri 05:33:32 PM 32.0044 -101.9919 301° West 287 330 6,800 -1,100 Descending Fort Worth Center
Fri 05:34:32 PM 32.0247 -102.0689 287° West 259 298 5,900 -900 Descending Fort Worth Center

Login

Don't have an account? Register now (free) for customized features, flight alerts, and more!